Time;durP1;ratioP1;P1;durP2;ratioP2;P2;SDS_P1;SDS_P2;PMS_P1;PMS_P2;Temp;Humidity;BMP_temperature;BMP_pressure;BME280_temperature;BME280_humidity;BME280_pressure;Samples;Min_cycle;Max_cycle;Signal;HPM_P1;HPM_P2
2023/08/27 00:00:28;;;;;;;11.55;7.25;;;14.50;99.90;;;;;;5072726;28;20120;-56
2023/08/27 00:02:54;;;;;;;7.07;6.30;;;14.40;99.90;;;;;;5067722;28;20116;-56
2023/08/27 00:05:20;;;;;;;8.00;7.20;;;14.40;99.90;;;;;;5072395;28;20036;-57
2023/08/27 00:07:46;;;;;;;8.10;7.40;;;14.40;99.90;;;;;;5066489;28;20120;-56
2023/08/27 00:10:12;;;;;;;7.45;6.68;;;14.40;99.90;;;;;;5072070;28;20032;-56
2023/08/27 00:12:38;;;;;;;8.27;7.47;;;14.40;99.90;;;;;;5072870;28;20437;-56
2023/08/27 00:15:04;;;;;;;8.85;7.07;;;14.40;99.90;;;;;;5072216;28;20058;-56
2023/08/27 00:17:30;;;;;;;9.38;7.68;;;14.40;99.90;;;;;;5071939;28;20094;-57
2023/08/27 00:19:56;;;;;;;8.65;7.70;;;14.40;99.90;;;;;;5072149;28;20044;-56
2023/08/27 00:22:21;;;;;;;9.95;7.10;;;14.30;99.90;;;;;;5072075;28;20021;-57
2023/08/27 00:24:47;;;;;;;8.40;6.95;;;14.40;99.90;;;;;;5072019;28;20101;-57
2023/08/27 00:27:13;;;;;;;10.43;7.55;;;14.50;99.90;;;;;;5070879;28;20048;-56
2023/08/27 00:29:38;;;;;;;7.97;7.20;;;14.40;99.90;;;;;;5072086;28;20036;-57
2023/08/27 00:32:05;;;;;;;8.63;7.75;;;14.40;99.90;;;;;;5070442;28;20395;-57
2023/08/27 00:34:34;;;;;;;7.55;6.72;;;14.40;99.90;;;;;;5060566;28;20028;-56
2023/08/27 00:37:01;;;;;;;8.20;7.38;;;14.40;99.90;;;;;;5071156;28;20071;-56
2023/08/27 00:39:29;;;;;;;8.73;7.82;;;14.40;99.90;;;;;;5057646;28;20040;-57
2023/08/27 00:41:55;;;;;;;11.00;7.45;;;14.30;99.90;;;;;;5071871;28;20079;-56
2023/08/27 00:44:20;;;;;;;8.90;7.35;;;14.30;99.90;;;;;;5071739;28;20064;-56
2023/08/27 00:46:50;;;;;;;7.95;6.95;;;14.30;99.90;;;;;;5071681;28;20087;-56
2023/08/27 00:49:16;;;;;;;8.80;7.82;;;14.30;99.90;;;;;;5071554;28;20394;-56
2023/08/27 00:51:43;;;;;;;7.88;7.07;;;14.30;99.90;;;;;;5071889;28;20032;-56
2023/08/27 00:54:10;;;;;;;8.65;7.85;;;14.30;99.90;;;;;;5071591;28;20044;-57
2023/08/27 00:56:36;;;;;;;10.82;7.60;;;14.30;99.90;;;;;;5071718;28;20085;-56
2023/08/27 00:59:02;;;;;;;10.85;7.20;;;14.30;99.90;;;;;;5071438;28;20444;-58
2023/08/27 01:01:29;;;;;;;8.00;7.30;;;14.30;99.90;;;;;;5071671;28;20059;-57
2023/08/27 01:03:55;;;;;;;10.23;7.35;;;14.20;99.90;;;;;;5060337;28;20398;-57
2023/08/27 01:06:20;;;;;;;7.78;7.07;;;14.30;99.90;;;;;;5071729;28;20056;-57
2023/08/27 01:08:56;;;;;;;9.35;7.55;;;14.30;99.90;;;;;;5061701;28;20033;-56
2023/08/27 01:11:36;;;;;;;7.97;7.18;;;14.30;99.90;;;;;;5071501;28;20391;-56
2023/08/27 01:14:07;;;;;;;10.73;7.22;;;14.30;99.90;;;;;;5071316;28;20029;-56
2023/08/27 01:16:35;;;;;;;18.50;7.50;;;14.30;99.90;;;;;;5066861;28;20047;-55
2023/08/27 01:19:01;;;;;;;7.63;6.47;;;14.30;99.90;;;;;;5064585;28;20093;-55
2023/08/27 01:21:27;;;;;;;7.85;7.05;;;14.30;99.90;;;;;;5071463;28;20505;-56
2023/08/27 01:23:53;;;;;;;7.97;7.00;;;14.30;99.90;;;;;;5074180;28;20045;-56
2023/08/27 01:26:37;;;;;;;8.48;7.68;;;14.30;99.90;;;;;;5075187;28;20038;-57
2023/08/27 01:29:14;;;;;;;9.82;7.15;;;14.30;99.90;;;;;;5075634;28;20044;-57
2023/08/27 01:31:47;;;;;;;7.93;6.85;;;14.40;99.90;;;;;;5075520;28;20043;-56
2023/08/27 01:34:16;;;;;;;10.20;7.20;;;14.30;99.90;;;;;;5071040;28;20415;-56
2023/08/27 01:36:43;;;;;;;8.60;6.25;;;14.30;99.90;;;;;;5075025;28;20052;-56
2023/08/27 01:39:14;;;;;;;7.65;6.95;;;14.20;99.90;;;;;;5070119;28;20045;-56
2023/08/27 01:41:39;;;;;;;8.35;6.18;;;14.30;99.90;;;;;;5062027;28;20056;-57
2023/08/27 01:44:05;;;;;;;11.05;6.85;;;14.30;99.90;;;;;;5074044;28;20040;-56
2023/08/27 01:46:31;;;;;;;7.35;6.57;;;14.20;99.90;;;;;;5063777;28;20035;-56
2023/08/27 01:48:56;;;;;;;7.45;6.25;;;14.20;99.90;;;;;;5075034;28;20072;-57
2023/08/27 01:51:22;;;;;;;6.75;6.10;;;14.10;99.90;;;;;;5074238;28;20047;-57
2023/08/27 01:53:47;;;;;;;8.32;6.93;;;14.20;99.90;;;;;;5075298;28;20761;-56
2023/08/27 01:56:13;;;;;;;7.63;6.93;;;14.20;99.90;;;;;;5075259;28;20526;-57
2023/08/27 01:58:38;;;;;;;8.75;6.38;;;14.20;99.90;;;;;;5075093;28;20036;-56
2023/08/27 02:01:04;;;;;;;9.10;6.40;;;14.20;99.90;;;;;;5073410;28;20465;-56
2023/08/27 02:03:30;;;;;;;7.35;6.65;;;14.20;99.90;;;;;;5060511;28;20044;-57
2023/08/27 02:05:55;;;;;;;8.02;7.13;;;14.20;99.90;;;;;;5073672;28;20044;-56
2023/08/27 02:08:21;;;;;;;6.78;6.18;;;14.10;99.90;;;;;;5065092;28;20502;-57
2023/08/27 02:10:49;;;;;;;6.80;6.20;;;14.10;99.90;;;;;;5071967;28;20040;-56
2023/08/27 02:13:16;;;;;;;7.00;6.30;;;14.10;99.90;;;;;;5074890;28;20120;-56
2023/08/27 02:15:43;;;;;;;8.02;6.78;;;14.10;99.90;;;;;;5074694;28;20394;-57
2023/08/27 02:18:09;;;;;;;10.50;6.80;;;14.10;99.90;;;;;;5071547;28;20499;-57
2023/08/27 02:20:34;;;;;;;7.70;7.00;;;14.10;99.90;;;;;;5067405;28;20085;-57
2023/08/27 02:23:00;;;;;;;7.30;6.38;;;14.00;99.90;;;;;;5072709;28;20064;-57
2023/08/27 02:25:26;;;;;;;9.35;6.93;;;14.00;99.90;;;;;;5073241;28;20119;-57
2023/08/27 02:27:51;;;;;;;8.30;7.50;;;14.00;99.90;;;;;;5074442;28;20040;-57
2023/08/27 02:30:17;;;;;;;8.18;6.97;;;13.90;99.90;;;;;;5074683;28;20036;-57
2023/08/27 02:32:42;;;;;;;6.63;6.07;;;14.00;99.90;;;;;;5062650;28;20059;-57
2023/08/27 02:35:08;;;;;;;7.70;6.85;;;14.00;99.90;;;;;;5072659;28;20052;-57
2023/08/27 02:37:34;;;;;;;7.38;6.68;;;14.00;99.90;;;;;;5067620;28;20426;-57
2023/08/27 02:40:00;;;;;;;7.57;6.78;;;14.10;99.90;;;;;;5068069;28;20036;-56
2023/08/27 02:42:25;;;;;;;8.48;7.63;;;14.00;99.90;;;;;;5073136;28;20347;-56
2023/08/27 02:44:51;;;;;;;6.85;6.15;;;14.00;99.90;;;;;;5072771;28;20466;-57
2023/08/27 02:47:16;;;;;;;12.02;7.72;;;14.00;99.90;;;;;;5071385;28;20119;-55
2023/08/27 02:49:42;;;;;;;8.07;6.53;;;13.90;99.90;;;;;;5073047;28;20028;-56
2023/08/27 02:52:07;;;;;;;7.75;7.05;;;14.00;99.90;;;;;;5072986;28;20501;-57
2023/08/27 02:54:33;;;;;;;7.80;6.40;;;13.90;99.90;;;;;;5072684;28;20037;-56
2023/08/27 02:56:59;;;;;;;7.70;6.90;;;14.00;99.90;;;;;;5072798;28;20033;-56
2023/08/27 02:59:24;;;;;;;9.07;6.03;;;14.00;99.90;;;;;;5072630;28;20028;-56
2023/08/27 03:01:53;;;;;;;7.93;7.13;;;13.90;99.90;;;;;;5071379;28;20555;-56
2023/08/27 03:04:19;;;;;;;;;;;14.00;99.90;;;;;;5067683;28;20042;-56
2023/08/27 03:06:44;;;;;;;8.13;7.32;;;14.00;99.90;;;;;;5072707;28;19921;-57
2023/08/27 03:09:10;;;;;;;7.30;6.50;;;13.90;99.90;;;;;;5068093;28;20405;-56
2023/08/27 03:11:36;;;;;;;10.25;7.05;;;13.90;99.90;;;;;;5071215;28;20143;-57
2023/08/27 03:14:02;;;;;;;8.80;6.78;;;13.90;99.90;;;;;;5057732;28;20131;-57
2023/08/27 03:16:28;;;;;;;8.27;7.05;;;14.00;99.90;;;;;;5067080;28;20047;-57
2023/08/27 03:18:54;;;;;;;9.80;7.43;;;13.90;99.90;;;;;;5072395;28;20380;-57
2023/08/27 03:21:21;;;;;;;7.60;6.90;;;13.90;99.90;;;;;;5062863;28;20090;-57
2023/08/27 03:23:47;;;;;;;7.38;6.65;;;13.90;99.90;;;;;;5062880;28;20064;-57
2023/08/27 03:26:12;;;;;;;8.15;7.35;;;13.90;99.90;;;;;;5072341;28;20575;-57
2023/08/27 03:28:38;;;;;;;31.55;7.72;;;14.00;99.90;;;;;;5072957;28;20423;-56
2023/08/27 03:31:04;;;;;;;7.90;7.13;;;13.90;99.90;;;;;;5072025;28;20379;-56
2023/08/27 03:33:31;;;;;;;7.60;6.55;;;13.90;99.90;;;;;;5066810;28;20068;-57
2023/08/27 03:35:58;;;;;;;8.55;7.32;;;13.90;99.90;;;;;;5071952;28;20124;-57
2023/08/27 03:38:24;;;;;;;8.57;7.43;;;13.90;99.90;;;;;;5030229;28;1067118;-56
2023/08/27 03:40:52;;;;;;;11.82;7.82;;;14.00;99.90;;;;;;5073092;28;20044;-57
2023/08/27 03:43:18;;;;;;;;;;;13.90;99.90;;;;;;5073344;28;20044;-57
2023/08/27 03:45:44;;;;;;;9.52;8.02;;;14.00;99.90;;;;;;5071898;28;20019;-57
2023/08/27 03:48:10;;;;;;;8.10;7.30;;;14.10;99.90;;;;;;5072601;28;20059;-56
2023/08/27 03:50:36;;;;;;;8.23;7.10;;;14.00;99.90;;;;;;5072881;28;20041;-56
2023/08/27 03:53:04;;;;;;;9.48;7.72;;;14.00;99.90;;;;;;5072442;28;20036;-57
2023/08/27 03:55:30;;;;;;;12.15;7.88;;;14.10;99.90;;;;;;5072764;28;20049;-57
2023/08/27 03:57:56;;;;;;;8.68;7.78;;;14.10;99.90;;;;;;5072552;28;20044;-57
2023/08/27 04:00:22;;;;;;;9.93;8.13;;;14.10;99.90;;;;;;5072320;28;20120;-56
2023/08/27 04:02:47;;;;;;;8.38;7.57;;;14.00;99.90;;;;;;5068634;28;20123;-57
2023/08/27 04:05:13;;;;;;;9.23;7.80;;;14.00;99.90;;;;;;5072433;28;20398;-57
2023/08/27 04:07:39;;;;;;;9.45;8.25;;;14.10;99.90;;;;;;5071231;28;20135;-57
2023/08/27 04:10:05;;;;;;;10.18;7.68;;;14.00;99.90;;;;;;5072407;28;20072;-56
2023/08/27 04:12:33;;;;;;;8.13;7.05;;;14.00;99.90;;;;;;5070304;28;20028;-57
2023/08/27 04:14:59;;;;;;;8.88;7.63;;;14.00;99.90;;;;;;5072330;28;20043;-56
2023/08/27 04:17:25;;;;;;;9.63;8.73;;;14.10;99.90;;;;;;5072041;28;20037;-57
2023/08/27 04:19:52;;;;;;;9.73;8.73;;;14.10;99.90;;;;;;5072354;28;20140;-57
2023/08/27 04:22:17;;;;;;;9.93;8.32;;;14.10;99.90;;;;;;5072132;28;20045;-57
2023/08/27 04:24:43;;;;;;;8.52;7.72;;;14.10;99.90;;;;;;5071935;28;20044;-57
2023/08/27 04:27:10;;;;;;;11.18;8.02;;;14.10;99.90;;;;;;5072100;28;20060;-56
2023/08/27 04:29:36;;;;;;;8.55;7.63;;;14.00;99.90;;;;;;5071787;28;20090;-57
2023/08/27 04:32:03;;;;;;;9.55;8.48;;;14.10;99.90;;;;;;5068740;28;20036;-57
2023/08/27 04:34:29;;;;;;;10.60;7.50;;;14.10;99.90;;;;;;5071614;28;20036;-57
2023/08/27 04:36:56;;;;;;;8.43;7.25;;;14.00;99.90;;;;;;5070547;28;20067;-57
2023/08/27 04:39:22;;;;;;;12.57;8.63;;;14.00;99.90;;;;;;5069229;28;20366;-57
2023/08/27 04:41:48;;;;;;;9.60;7.40;;;14.10;99.90;;;;;;5072217;28;20165;-56
2023/08/27 04:44:14;;;;;;;8.20;7.40;;;13.90;99.90;;;;;;5071794;28;20048;-55
2023/08/27 04:46:39;;;;;;;8.82;7.93;;;14.00;99.90;;;;;;5071784;28;20043;-56
2023/08/27 04:49:05;;;;;;;10.13;7.63;;;14.00;99.90;;;;;;5071660;28;20044;-55
2023/08/27 04:51:31;;;;;;;8.73;7.57;;;13.90;99.90;;;;;;5071564;28;20045;-55
2023/08/27 04:53:56;;;;;;;8.95;8.05;;;13.90;99.90;;;;;;5071760;28;20040;-56
2023/08/27 04:56:22;;;;;;;8.32;7.32;;;13.90;99.90;;;;;;5071346;28;20044;-56
2023/08/27 04:58:48;;;;;;;9.00;7.25;;;13.90;99.90;;;;;;5071733;28;20410;-55
2023/08/27 05:01:13;;;;;;;8.35;7.50;;;13.90;99.90;;;;;;5071716;28;20046;-56
2023/08/27 05:03:39;;;;;;;8.93;7.82;;;13.90;99.90;;;;;;5064306;28;20040;-56
2023/08/27 05:06:05;;;;;;;8.63;7.70;;;13.80;99.90;;;;;;5071441;28;20062;-56
2023/08/27 05:08:30;;;;;;;9.27;8.40;;;13.80;99.90;;;;;;5064248;28;20403;-56
2023/08/27 05:10:56;;;;;;;8.82;7.93;;;13.80;99.90;;;;;;5071397;28;20036;-55
2023/08/27 05:13:21;;;;;;;11.50;8.00;;;13.90;99.90;;;;;;5071445;28;20078;-56
2023/08/27 05:15:47;;;;;;;8.63;7.82;;;13.80;99.90;;;;;;5071680;28;20039;-56
2023/08/27 05:18:13;;;;;;;8.95;8.00;;;13.90;99.90;;;;;;5071600;28;20066;-56
2023/08/27 05:20:39;;;;;;;10.07;7.93;;;13.90;99.90;;;;;;5072056;28;20177;-55
2023/08/27 05:23:05;;;;;;;9.98;8.50;;;13.80;99.90;;;;;;5071363;28;20508;-55
2023/08/27 05:25:30;;;;;;;10.70;7.97;;;13.80;99.90;;;;;;5071356;28;20048;-55
2023/08/27 05:27:56;;;;;;;7.63;7.00;;;13.80;99.90;;;;;;5071165;28;20039;-56
2023/08/27 05:30:22;;;;;;;8.38;7.53;;;13.80;99.90;;;;;;5071543;28;20036;-56
2023/08/27 05:32:47;;;;;;;8.80;7.90;;;13.80;99.90;;;;;;5059873;28;20041;-56
2023/08/27 05:35:13;;;;;;;8.18;7.38;;;13.90;99.90;;;;;;5071342;28;20048;-55
2023/08/27 05:37:39;;;;;;;8.20;7.40;;;13.90;99.90;;;;;;5066568;28;20407;-55
2023/08/27 05:40:06;;;;;;;8.55;7.72;;;13.90;99.90;;;;;;5071306;28;20052;-56
2023/08/27 05:42:32;;;;;;;9.15;8.35;;;14.10;99.90;;;;;;5071024;28;20043;-56
2023/08/27 05:44:58;;;;;;;9.45;7.10;;;14.20;99.90;;;;;;5071287;28;20040;-56
2023/08/27 05:47:24;;;;;;;7.90;7.10;;;14.40;99.90;;;;;;5071086;28;20048;-56
2023/08/27 05:49:49;;;;;;;8.80;7.28;;;14.50;99.90;;;;;;5071093;28;20086;-56
2023/08/27 05:52:15;;;;;;;7.53;6.70;;;14.60;99.90;;;;;;5071359;28;20114;-56
2023/08/27 05:54:40;;;;;;;7.68;6.88;;;14.70;99.90;;;;;;5071132;28;20036;-56
2023/08/27 05:57:06;;;;;;;7.60;6.88;;;14.70;99.90;;;;;;5071371;28;20036;-56
2023/08/27 05:59:32;;;;;;;9.75;6.65;;;14.70;99.90;;;;;;5071116;28;20036;-57
2023/08/27 06:01:58;;;;;;;8.57;6.53;;;14.70;99.90;;;;;;5065471;28;20044;-56
2023/08/27 06:04:24;;;;;;;8.88;6.60;;;14.60;99.90;;;;;;5066708;28;20557;-56
2023/08/27 06:06:50;;;;;;;8.38;7.53;;;14.60;99.90;;;;;;5067747;28;20878;-56
2023/08/27 06:09:17;;;;;;;7.95;7.13;;;14.60;99.90;;;;;;5066233;28;20036;-56
2023/08/27 06:11:42;;;;;;;7.82;7.13;;;14.60;99.90;;;;;;5074451;28;20032;-56
2023/08/27 06:14:08;;;;;;;9.30;6.60;;;14.60;99.90;;;;;;5074544;28;20489;-55
2023/08/27 06:16:34;;;;;;;9.05;6.88;;;14.50;99.90;;;;;;5074873;28;20090;-55
2023/08/27 06:19:00;;;;;;;8.32;7.22;;;14.50;99.90;;;;;;5074829;28;20043;-55
2023/08/27 06:21:27;;;;;;;8.85;7.53;;;14.60;99.90;;;;;;5074705;28;20047;-56
2023/08/27 06:23:53;;;;;;;8.45;7.00;;;14.60;99.90;;;;;;5074310;28;20049;-56
2023/08/27 06:26:18;;;;;;;7.78;7.03;;;14.60;99.90;;;;;;5074317;28;20064;-56
2023/08/27 06:28:46;;;;;;;8.38;6.80;;;14.70;99.90;;;;;;5074294;28;20028;-56
2023/08/27 06:31:12;;;;;;;7.85;7.03;;;14.70;99.90;;;;;;5074440;28;20070;-56
2023/08/27 06:33:38;;;;;;;8.30;6.78;;;14.60;99.90;;;;;;5063166;28;20040;-56
2023/08/27 06:36:05;;;;;;;9.20;7.43;;;14.70;99.90;;;;;;5074126;28;20483;-56
2023/08/27 06:38:31;;;;;;;7.70;6.93;;;14.70;99.90;;;;;;5073884;28;20061;-56
2023/08/27 06:40:57;;;;;;;7.88;7.07;;;14.60;99.90;;;;;;5074417;28;20041;-55
2023/08/27 06:43:24;;;;;;;12.15;7.05;;;14.60;99.90;;;;;;5073933;28;20037;-57
2023/08/27 06:45:50;;;;;;;8.15;7.05;;;14.60;99.90;;;;;;5074122;28;20059;-56
2023/08/27 06:48:15;;;;;;;9.52;7.53;;;14.60;99.90;;;;;;5072721;28;20157;-56
2023/08/27 06:50:41;;;;;;;8.95;6.53;;;14.60;99.90;;;;;;5074081;28;20111;-56
2023/08/27 06:53:07;;;;;;;10.10;7.00;;;14.60;99.90;;;;;;5074083;28;20066;-56
2023/08/27 06:55:32;;;;;;;9.05;6.93;;;14.60;99.90;;;;;;5073695;28;20048;-56
2023/08/27 06:57:58;;;;;;;7.93;7.18;;;14.70;99.90;;;;;;5074094;28;20036;-56
2023/08/27 07:00:25;;;;;;;8.02;7.15;;;14.60;99.90;;;;;;5068982;28;20052;-56
2023/08/27 07:02:51;;;;;;;8.32;6.90;;;14.70;99.90;;;;;;5065330;28;20060;-56
2023/08/27 07:05:17;;;;;;;10.90;7.43;;;14.70;99.90;;;;;;5073539;28;20037;-56
2023/08/27 07:07:42;;;;;;;8.57;6.45;;;14.70;99.90;;;;;;5073698;28;20032;-56
2023/08/27 07:10:08;;;;;;;10.50;7.20;;;14.70;99.90;;;;;;5070401;28;20467;-56
2023/08/27 07:12:35;;;;;;;8.68;6.13;;;14.70;99.90;;;;;;5068066;28;20037;-57
2023/08/27 07:15:02;;;;;;;9.95;6.03;;;14.70;99.90;;;;;;5073542;28;21160;-56
2023/08/27 07:17:28;;;;;;;7.35;5.82;;;14.80;99.90;;;;;;5064515;28;20052;-55
2023/08/27 07:19:53;;;;;;;5.78;5.18;;;14.80;99.90;;;;;;5067491;28;20040;-56
2023/08/27 07:22:19;;;;;;;6.60;5.45;;;14.70;99.90;;;;;;5072846;28;20403;-56
2023/08/27 07:24:44;;;;;;;5.40;3.67;;;14.70;99.90;;;;;;5073348;28;20119;-56
2023/08/27 07:27:10;;;;;;;5.13;3.63;;;14.60;99.90;;;;;;5073488;28;20068;-56
2023/08/27 07:29:36;;;;;;;6.00;3.88;;;14.70;99.90;;;;;;5073167;28;20536;-56
2023/08/27 07:32:03;;;;;;;6.55;3.78;;;14.80;99.90;;;;;;5073193;28;20448;-56
2023/08/27 07:34:30;;;;;;;4.93;3.88;;;14.80;99.90;;;;;;5073298;28;20089;-56
2023/08/27 07:36:56;;;;;;;3.25;2.75;;;14.90;99.90;;;;;;5073036;28;20064;-56
2023/08/27 07:39:22;;;;;;;5.10;3.28;;;14.90;99.90;;;;;;5072845;28;20040;-56
2023/08/27 07:41:49;;;;;;;5.22;3.38;;;15.00;99.90;;;;;;5072834;28;20079;-56
2023/08/27 07:44:15;;;;;;;5.78;3.33;;;14.90;99.90;;;;;;5073006;28;20045;-56
2023/08/27 07:46:42;;;;;;;5.60;3.90;;;15.00;99.90;;;;;;5070698;28;20077;-56
2023/08/27 07:49:08;;;;;;;9.20;4.03;;;15.00;99.90;;;;;;5072930;28;20041;-56
2023/08/27 07:51:34;;;;;;;5.78;3.50;;;15.00;99.90;;;;;;5072802;28;20071;-56
2023/08/27 07:54:00;;;;;;;5.32;3.40;;;15.10;99.90;;;;;;5072602;28;20162;-56
2023/08/27 07:56:25;;;;;;;5.80;3.45;;;15.10;99.90;;;;;;5072750;28;20124;-55
2023/08/27 07:58:51;;;;;;;5.65;3.40;;;15.10;99.90;;;;;;5072763;28;20414;-56
2023/08/27 08:01:17;;;;;;;5.60;3.70;;;15.20;99.90;;;;;;5073546;28;20043;-56
2023/08/27 08:03:43;;;;;;;5.47;3.25;;;15.20;99.90;;;;;;5073018;28;20445;-56
2023/08/27 08:06:09;;;;;;;5.22;3.75;;;15.30;99.90;;;;;;5072200;28;20406;-56
2023/08/27 08:08:35;;;;;;;3.78;3.38;;;15.40;99.90;;;;;;5072289;28;20390;-56
2023/08/27 08:11:01;;;;;;;5.45;3.80;;;15.80;99.90;;;;;;5072500;28;20081;-56
2023/08/27 08:13:26;;;;;;;7.93;3.70;;;16.20;99.90;;;;;;5072477;28;20033;-55
2023/08/27 08:15:52;;;;;;;5.50;3.63;;;16.60;99.90;;;;;;5071171;28;20048;-56
2023/08/27 08:18:18;;;;;;;5.15;3.22;;;17.00;99.90;;;;;;5072215;28;20379;-56
2023/08/27 08:20:44;;;;;;;7.28;3.50;;;17.10;99.90;;;;;;5072181;28;20406;-56
2023/08/27 08:23:10;;;;;;;5.93;3.50;;;17.10;99.90;;;;;;5072181;28;20044;-56
2023/08/27 08:25:37;;;;;;;4.45;2.97;;;17.10;99.90;;;;;;5072194;28;20040;-56
2023/08/27 08:28:06;;;;;;;5.15;3.00;;;17.20;99.90;;;;;;5072527;28;20043;-57
2023/08/27 08:30:31;;;;;;;4.97;3.03;;;17.50;99.90;;;;;;5072079;28;20513;-57
2023/08/27 08:32:57;;;;;;;4.00;3.20;;;17.80;99.90;;;;;;5071600;28;20044;-56
2023/08/27 08:35:24;;;;;;;3.38;2.78;;;17.90;99.90;;;;;;5071961;28;20041;-56
2023/08/27 08:37:49;;;;;;;6.18;2.60;;;18.30;99.90;;;;;;5071803;28;20441;-56
2023/08/27 08:40:15;;;;;;;4.60;2.20;;;18.70;99.90;;;;;;5071678;28;20040;-56
2023/08/27 08:42:55;;;;;;;2.75;2.40;;;19.30;99.90;;;;;;5072178;28;20033;-56
2023/08/27 08:45:37;;;;;;;3.03;2.13;;;19.50;99.90;;;;;;5072135;28;20099;-56
2023/08/27 08:48:05;;;;;;;2.88;1.73;;;19.70;99.90;;;;;;5071685;28;20047;-56
2023/08/27 08:50:35;;;;;;;2.65;1.75;;;19.90;99.90;;;;;;5071852;28;20487;-56
2023/08/27 08:53:12;;;;;;;5.20;2.28;;;19.90;99.90;;;;;;5071606;28;20072;-56
2023/08/27 08:55:45;;;;;;;3.00;1.77;;;19.80;99.90;;;;;;5072270;28;20055;-57
2023/08/27 08:58:12;;;;;;;2.33;1.80;;;20.00;99.90;;;;;;5071649;28;20486;-56
2023/08/27 09:00:38;;;;;;;1.95;1.48;;;20.10;99.90;;;;;;5071473;28;20055;-56
2023/08/27 09:03:04;;;;;;;3.80;1.48;;;19.90;99.90;;;;;;5071761;28;20041;-57
2023/08/27 09:05:32;;;;;;;3.38;1.65;;;20.00;99.90;;;;;;5071545;28;20040;-56
2023/08/27 09:07:58;;;;;;;2.38;1.55;;;20.30;99.90;;;;;;5065529;28;20041;-56
2023/08/27 09:10:27;;;;;;;3.10;1.48;;;20.40;99.90;;;;;;5071594;28;20360;-56
2023/08/27 09:12:57;;;;;;;2.03;1.40;;;20.40;99.90;;;;;;5071701;28;20036;-56
2023/08/27 09:15:23;;;;;;;2.70;1.50;;;20.10;99.90;;;;;;5071772;28;20044;-56
2023/08/27 09:17:49;;;;;;;3.33;1.77;;;20.10;99.90;;;;;;5071683;28;20033;-57
2023/08/27 09:20:15;;;;;;;3.20;1.30;;;19.90;99.90;;;;;;5071706;28;20102;-57
2023/08/27 09:22:41;;;;;;;4.25;1.83;;;20.20;99.90;;;;;;5071537;28;20043;-57
2023/08/27 09:25:09;;;;;;;2.20;1.35;;;20.40;99.90;;;;;;5063583;28;20051;-57
2023/08/27 09:27:35;;;;;;;3.83;1.20;;;20.80;99.90;;;;;;5071347;28;20043;-57
2023/08/27 09:30:04;;;;;;;4.75;1.73;;;21.20;99.90;;;;;;5071642;28;20036;-56
2023/08/27 09:32:29;;;;;;;;;;;21.40;99.90;;;;;;5070841;28;20429;-56
2023/08/27 09:35:00;;;;;;;1.80;1.35;;;21.60;99.90;;;;;;5071154;28;19922;-56
2023/08/27 09:37:36;;;;;;;3.35;1.67;;;22.00;99.90;;;;;;5071223;28;20093;-57
2023/08/27 09:40:05;;;;;;;3.55;1.73;;;21.90;99.90;;;;;;5071100;28;20142;-57
2023/08/27 09:42:32;;;;;;;3.33;1.50;;;21.60;99.90;;;;;;5071423;28;20453;-60
2023/08/27 09:44:58;;;;;;;5.22;1.35;;;22.00;99.90;;;;;;5074061;28;20115;-61
2023/08/27 09:47:30;;;;;;;2.65;1.63;;;22.00;99.90;;;;;;5074982;28;20115;-61
2023/08/27 09:49:56;;;;;;;2.20;1.23;;;23.70;99.90;;;;;;5071410;28;20078;-60
2023/08/27 09:52:24;;;;;;;2.00;1.23;;;25.30;99.90;;;;;;5074964;28;20399;-61
2023/08/27 09:54:51;;;;;;;2.78;1.10;;;25.30;99.90;;;;;;5075325;28;20045;-62
2023/08/27 09:57:18;;;;;;;3.67;1.50;;;26.80;99.90;;;;;;5075023;28;20028;-61
2023/08/27 09:59:44;;;;;;;2.20;1.35;;;25.90;99.90;;;;;;5075205;28;20041;-61
2023/08/27 10:02:19;;;;;;;1.92;1.33;;;26.50;99.90;;;;;;5074826;28;20062;-61
2023/08/27 10:04:53;;;;;;;4.00;1.50;;;25.50;99.90;;;;;;5073007;28;20033;-59
2023/08/27 10:07:19;;;;;;;2.13;1.20;;;25.80;99.90;;;;;;5068172;28;20068;-58
2023/08/27 10:09:53;;;;;;;3.53;1.30;;;24.70;99.90;;;;;;5075162;28;20151;-59
2023/08/27 10:12:20;;;;;;;2.63;1.08;;;24.50;99.90;;;;;;5075003;28;20043;-59
2023/08/27 10:14:46;;;;;;;1.63;1.00;;;25.80;99.90;;;;;;5071924;28;20044;-58
2023/08/27 10:17:13;;;;;;;1.95;1.17;;;26.90;99.90;;;;;;5075091;28;20091;-59
2023/08/27 10:19:39;;;;;;;4.03;1.15;;;26.30;99.90;;;;;;5074809;28;20036;-60
2023/08/27 10:22:05;;;;;;;1.48;1.13;;;27.30;99.90;;;;;;5074690;28;20035;-58
2023/08/27 10:24:31;;;;;;;1.60;1.10;;;26.10;99.90;;;;;;5074619;28;20489;-59
2023/08/27 10:26:58;;;;;;;1.67;1.00;;;26.20;99.90;;;;;;5074802;28;20051;-59
2023/08/27 10:29:27;;;;;;;2.00;1.10;;;27.40;99.90;;;;;;5073528;28;20112;-59
2023/08/27 10:31:53;;;;;;;2.50;0.90;;;28.10;99.90;;;;;;5074355;28;20060;-60
2023/08/27 10:34:20;;;;;;;1.33;0.90;;;28.70;99.90;;;;;;5074050;28;20605;-59
2023/08/27 10:36:47;;;;;;;2.00;1.17;;;29.30;99.90;;;;;;5074308;28;20060;-61
2023/08/27 10:39:14;;;;;;;2.00;1.02;;;29.70;99.80;;;;;;5073936;28;20513;-59
2023/08/27 10:41:40;;;;;;;1.50;0.75;;;29.70;99.00;;;;;;5074280;28;20101;-59
2023/08/27 10:44:09;;;;;;;2.67;1.00;;;30.40;98.70;;;;;;5074475;28;20474;-59
2023/08/27 10:46:35;;;;;;;5.75;1.17;;;30.20;97.90;;;;;;5068915;28;20037;-59
2023/08/27 10:49:15;;;;;;;3.55;0.88;;;30.40;98.00;;;;;;5072560;28;20082;-60
2023/08/27 10:51:40;;;;;;;1.13;0.70;;;30.10;96.90;;;;;;5074461;28;20037;-60
2023/08/27 10:54:07;;;;;;;1.85;0.95;;;28.90;98.40;;;;;;5074224;28;20505;-59
2023/08/27 10:56:38;;;;;;;1.58;0.90;;;28.10;99.70;;;;;;5073159;28;20040;-59
2023/08/27 10:59:24;;;;;;;1.63;1.10;;;27.30;99.20;;;;;;5073193;28;20372;-59
2023/08/27 11:02:09;;;;;;;2.22;1.17;;;26.30;99.90;;;;;;5068303;28;20119;-59
2023/08/27 11:04:41;;;;;;;2.63;1.10;;;25.90;99.90;;;;;;5072857;28;20040;-61
2023/08/27 11:07:19;;;;;;;2.00;1.20;;;25.30;99.90;;;;;;5062848;28;20048;-60
2023/08/27 11:09:48;;;;;;;8.73;1.27;;;24.60;99.90;;;;;;5073591;28;20037;-59
2023/08/27 11:12:24;;;;;;;4.03;1.48;;;23.90;99.90;;;;;;5073822;28;20043;-60
2023/08/27 11:14:51;;;;;;;7.68;2.20;;;23.40;99.90;;;;;;5073875;28;20532;-61
2023/08/27 11:17:28;;;;;;;5.43;2.17;;;22.90;99.90;;;;;;5074321;28;20036;-61
2023/08/27 11:19:57;;;;;;;9.50;2.55;;;22.40;99.90;;;;;;5053943;28;20364;-60
2023/08/27 11:22:23;;;;;;;3.25;2.13;;;21.90;99.90;;;;;;5061719;28;20414;-60
2023/08/27 11:24:50;;;;;;;6.47;2.55;;;21.50;99.90;;;;;;5074139;28;20036;-60
2023/08/27 11:27:17;;;;;;;3.80;1.80;;;21.30;99.90;;;;;;5073948;28;20047;-60
2023/08/27 11:29:55;;;;;;;3.55;1.73;;;21.30;99.90;;;;;;5072479;28;20072;-61
2023/08/27 11:32:21;;;;;;;2.30;1.52;;;21.40;99.90;;;;;;5061300;28;20529;-60
2023/08/27 11:34:50;;;;;;;3.30;1.80;;;21.50;99.90;;;;;;5073765;28;20505;-61
2023/08/27 11:37:17;;;;;;;5.45;1.75;;;21.50;99.90;;;;;;5061639;28;20053;-61
2023/08/27 11:39:43;;;;;;;3.25;1.80;;;21.50;99.90;;;;;;5072793;28;20483;-60
2023/08/27 11:42:11;;;;;;;3.08;1.60;;;21.50;99.90;;;;;;5063545;28;20432;-60
2023/08/27 11:44:50;;;;;;;4.43;2.08;;;21.70;99.90;;;;;;5058354;28;20132;-61
2023/08/27 11:47:16;;;;;;;5.47;1.42;;;21.60;99.90;;;;;;5072927;28;20040;-61
2023/08/27 11:49:42;;;;;;;1.50;1.40;;;21.50;99.90;;;;;;5072302;28;20049;-61
2023/08/27 11:52:08;;;;;;;2.00;1.45;;;21.40;99.90;;;;;;5073252;28;20128;-61
2023/08/27 11:54:34;;;;;;;1.95;1.10;;;21.20;99.90;;;;;;5073164;28;20432;-61
2023/08/27 11:57:04;;;;;;;2.45;1.23;;;21.10;99.90;;;;;;5072816;28;20481;-61
2023/08/27 11:59:31;;;;;;;1.42;0.70;;;20.80;99.90;;;;;;5071397;28;20119;-60
2023/08/27 12:01:57;;;;;;;1.40;0.70;;;20.60;99.90;;;;;;5069697;28;20127;-61
2023/08/27 12:04:30;;;;;;;3.45;0.80;;;20.30;99.90;;;;;;5063223;28;20116;-61
2023/08/27 12:07:00;;;;;;;3.42;0.70;;;20.00;99.90;;;;;;5068329;28;20123;-60
2023/08/27 12:09:30;;;;;;;2.97;0.90;;;19.70;99.90;;;;;;5067856;28;20532;-60
2023/08/27 12:12:10;;;;;;;1.05;0.80;;;19.50;99.90;;;;;;5071575;28;20029;-61
2023/08/27 12:14:36;;;;;;;;;;;19.30;99.90;;;;;;5072995;28;20047;-60
2023/08/27 12:17:09;;;;;;;1.92;0.70;;;19.10;99.90;;;;;;5072726;28;19922;-61
2023/08/27 12:19:36;;;;;;;3.95;0.68;;;18.90;99.90;;;;;;5072763;28;20036;-61
2023/08/27 12:22:03;;;;;;;1.98;0.63;;;18.70;99.90;;;;;;5071763;28;20066;-61
2023/08/27 12:24:32;;;;;;;1.30;0.40;;;18.40;99.90;;;;;;5072320;28;20490;-62
2023/08/27 12:27:02;;;;;;;;;;;18.20;99.90;;;;;;5073193;28;20040;-60
2023/08/27 12:29:37;;;;;;;3.90;0.70;;;18.10;99.90;;;;;;5072974;28;19920;-61
2023/08/27 12:32:14;;;;;;;1.65;0.73;;;17.90;99.90;;;;;;5060352;28;20049;-61
2023/08/27 12:34:42;;;;;;;1.65;0.60;;;17.70;99.90;;;;;;5071036;28;20074;-61
2023/08/27 12:37:10;;;;;;;5.90;0.98;;;17.60;99.90;;;;;;5063485;28;20068;-61
2023/08/27 12:39:41;;;;;;;2.73;0.70;;;17.40;99.90;;;;;;5070047;28;20048;-61
2023/08/27 12:42:07;;;;;;;2.95;0.52;;;17.30;99.90;;;;;;5072870;28;20036;-61
2023/08/27 12:44:34;;;;;;;2.47;0.90;;;17.20;99.90;;;;;;5072705;28;20060;-60
2023/08/27 12:47:00;;;;;;;2.53;0.82;;;17.30;99.90;;;;;;5072319;28;20079;-61